sensor_id;sensor_type;location;lat;lon;timestamp;pressure;altitude;pressure_sealevel;temperature;humidity
19520;BME280;9904;52.246;20.898;2023-09-08T00:02:27;101167.78;;;18.29;74.97
19520;BME280;9904;52.246;20.898;2023-09-08T00:04:54;101167.97;;;18.27;74.99
19520;BME280;9904;52.246;20.898;2023-09-08T00:07:21;101173.78;;;18.24;75.24
19520;BME280;9904;52.246;20.898;2023-09-08T00:09:48;101164.72;;;18.24;75.14
19520;BME280;9904;52.246;20.898;2023-09-08T00:12:15;101161.50;;;18.20;75.09
19520;BME280;9904;52.246;20.898;2023-09-08T00:14:42;101164.78;;;18.15;75.58
19520;BME280;9904;52.246;20.898;2023-09-08T00:17:08;101163.56;;;18.18;75.60
19520;BME280;9904;52.246;20.898;2023-09-08T00:19:35;101163.75;;;18.16;75.82
19520;BME280;9904;52.246;20.898;2023-09-08T00:22:03;101161.16;;;18.23;74.74
19520;BME280;9904;52.246;20.898;2023-09-08T00:24:32;101159.78;;;18.19;75.31
19520;BME280;9904;52.246;20.898;2023-09-08T00:26:59;101156.56;;;18.15;75.89
19520;BME280;9904;52.246;20.898;2023-09-08T00:29:26;101154.53;;;18.09;75.92
19520;BME280;9904;52.246;20.898;2023-09-08T00:31:52;101153.13;;;18.13;75.45
19520;BME280;9904;52.246;20.898;2023-09-08T00:34:19;101153.69;;;18.09;75.90
19520;BME280;9904;52.246;20.898;2023-09-08T00:36:46;101161.03;;;18.08;76.00
19520;BME280;9904;52.246;20.898;2023-09-08T00:39:13;101150.47;;;18.05;76.27
19520;BME280;9904;52.246;20.898;2023-09-08T00:41:39;101152.13;;;18.06;76.04
19520;BME280;9904;52.246;20.898;2023-09-08T00:44:06;101159.38;;;17.99;76.66
19520;BME280;9904;52.246;20.898;2023-09-08T00:46:35;101163.63;;;18.01;76.31
19520;BME280;9904;52.246;20.898;2023-09-08T00:49:02;101164.50;;;18.02;76.25
19520;BME280;9904;52.246;20.898;2023-09-08T00:51:29;101154.91;;;17.98;76.79
19520;BME280;9904;52.246;20.898;2023-09-08T00:53:55;101166.22;;;18.03;76.30
19520;BME280;9904;52.246;20.898;2023-09-08T00:56:23;101165.72;;;17.99;76.75
19520;BME280;9904;52.246;20.898;2023-09-08T00:58:50;101157.31;;;17.93;76.83
19520;BME280;9904;52.246;20.898;2023-09-08T01:01:17;101168.09;;;17.94;76.67
19520;BME280;9904;52.246;20.898;2023-09-08T01:03:44;101165.88;;;17.98;76.62
19520;BME280;9904;52.246;20.898;2023-09-08T01:06:11;101160.25;;;17.99;76.63
19520;BME280;9904;52.246;20.898;2023-09-08T01:08:38;101158.88;;;17.95;77.23
19520;BME280;9904;52.246;20.898;2023-09-08T01:11:05;101155.25;;;17.95;76.94
19520;BME280;9904;52.246;20.898;2023-09-08T01:13:33;101154.28;;;17.87;77.25
19520;BME280;9904;52.246;20.898;2023-09-08T01:16:00;101152.38;;;17.96;76.67
19520;BME280;9904;52.246;20.898;2023-09-08T01:18:27;101153.75;;;17.92;77.01
19520;BME280;9904;52.246;20.898;2023-09-08T01:24:02;101150.50;;;17.88;77.10
19520;BME280;9904;52.246;20.898;2023-09-08T01:26:37;101151.53;;;17.96;76.84
19520;BME280;9904;52.246;20.898;2023-09-08T01:29:09;101144.28;;;18.03;76.47
19520;BME280;9904;52.246;20.898;2023-09-08T01:31:36;101143.09;;;18.05;76.41
19520;BME280;9904;52.246;20.898;2023-09-08T01:34:05;101131.78;;;18.09;76.24
19520;BME280;9904;52.246;20.898;2023-09-08T01:36:36;101144.50;;;17.93;76.88
19520;BME280;9904;52.246;20.898;2023-09-08T01:39:03;101138.88;;;17.86;77.56
19520;BME280;9904;52.246;20.898;2023-09-08T01:41:30;101142.28;;;17.88;77.36
19520;BME280;9904;52.246;20.898;2023-09-08T01:43:59;101142.50;;;17.79;77.88
19520;BME280;9904;52.246;20.898;2023-09-08T01:46:26;101133.06;;;17.81;78.27
19520;BME280;9904;52.246;20.898;2023-09-08T01:48:53;101140.19;;;17.99;76.88
19520;BME280;9904;52.246;20.898;2023-09-08T01:51:19;101133.53;;;17.93;77.13
19520;BME280;9904;52.246;20.898;2023-09-08T01:53:46;101146.59;;;17.83;77.58
19520;BME280;9904;52.246;20.898;2023-09-08T01:56:13;101137.63;;;17.97;76.78
19520;BME280;9904;52.246;20.898;2023-09-08T01:58:39;101133.19;;;17.96;76.80
19520;BME280;9904;52.246;20.898;2023-09-08T02:01:06;101126.72;;;17.81;77.64
19520;BME280;9904;52.246;20.898;2023-09-08T02:03:32;101133.75;;;17.75;78.34
19520;BME280;9904;52.246;20.898;2023-09-08T02:05:59;101120.06;;;17.75;78.01
19520;BME280;9904;52.246;20.898;2023-09-08T02:08:26;101127.44;;;17.74;78.00
19520;BME280;9904;52.246;20.898;2023-09-08T02:10:52;101134.28;;;17.79;77.73
19520;BME280;9904;52.246;20.898;2023-09-08T02:13:19;101138.44;;;17.66;78.91
19520;BME280;9904;52.246;20.898;2023-09-08T02:15:46;101130.50;;;17.80;77.94
19520;BME280;9904;52.246;20.898;2023-09-08T02:18:13;101128.97;;;17.77;78.26
19520;BME280;9904;52.246;20.898;2023-09-08T02:20:40;101138.41;;;17.74;78.34
19520;BME280;9904;52.246;20.898;2023-09-08T02:23:07;101135.66;;;17.74;78.22
19520;BME280;9904;52.246;20.898;2023-09-08T02:25:34;101124.63;;;17.60;78.97
19520;BME280;9904;52.246;20.898;2023-09-08T02:28:01;101131.41;;;17.72;78.35
19520;BME280;9904;52.246;20.898;2023-09-08T02:30:27;101123.06;;;17.57;79.12
19520;BME280;9904;52.246;20.898;2023-09-08T02:32:54;101129.41;;;17.57;79.06
19520;BME280;9904;52.246;20.898;2023-09-08T02:35:23;101125.63;;;17.58;79.26
19520;BME280;9904;52.246;20.898;2023-09-08T02:37:50;101116.56;;;17.58;79.28
19520;BME280;9904;52.246;20.898;2023-09-08T02:40:17;101124.25;;;17.63;79.08
19520;BME280;9904;52.246;20.898;2023-09-08T02:42:46;101116.94;;;17.55;79.36
19520;BME280;9904;52.246;20.898;2023-09-08T02:45:13;101105.63;;;17.50;79.77
19520;BME280;9904;52.246;20.898;2023-09-08T02:47:39;101114.19;;;17.55;79.64
19520;BME280;9904;52.246;20.898;2023-09-08T02:50:06;101109.91;;;17.52;79.40
19520;BME280;9904;52.246;20.898;2023-09-08T02:52:33;101111.28;;;17.48;80.05
19520;BME280;9904;52.246;20.898;2023-09-08T02:55:00;101107.16;;;17.52;79.86
19520;BME280;9904;52.246;20.898;2023-09-08T02:57:27;101116.25;;;17.53;79.76
19520;BME280;9904;52.246;20.898;2023-09-08T02:59:53;101108.56;;;17.48;79.90
19520;BME280;9904;52.246;20.898;2023-09-08T03:02:25;101111.47;;;17.47;79.83
19520;BME280;9904;52.246;20.898;2023-09-08T03:04:52;101107.03;;;17.46;80.15
19520;BME280;9904;52.246;20.898;2023-09-08T03:07:19;101106.84;;;17.47;80.14
19520;BME280;9904;52.246;20.898;2023-09-08T03:09:46;101103.59;;;17.52;79.70
19520;BME280;9904;52.246;20.898;2023-09-08T03:12:13;101106.00;;;17.47;79.88
19520;BME280;9904;52.246;20.898;2023-09-08T03:14:40;101093.84;;;17.49;79.91
19520;BME280;9904;52.246;20.898;2023-09-08T03:17:06;101099.59;;;17.63;79.21
19520;BME280;9904;52.246;20.898;2023-09-08T03:19:33;101086.44;;;17.58;79.70
19520;BME280;9904;52.246;20.898;2023-09-08T03:22:00;101087.47;;;17.57;79.34
19520;BME280;9904;52.246;20.898;2023-09-08T03:24:26;101086.47;;;17.50;79.68
19520;BME280;9904;52.246;20.898;2023-09-08T03:26:53;101087.97;;;17.61;79.31
19520;BME280;9904;52.246;20.898;2023-09-08T03:29:19;101092.09;;;17.56;79.24
19520;BME280;9904;52.246;20.898;2023-09-08T03:31:46;101091.06;;;17.57;79.20
19520;BME280;9904;52.246;20.898;2023-09-08T03:34:13;101095.66;;;17.65;78.71
19520;BME280;9904;52.246;20.898;2023-09-08T03:36:40;101082.59;;;17.44;80.02
19520;BME280;9904;52.246;20.898;2023-09-08T03:39:07;101093.81;;;17.57;79.22
19520;BME280;9904;52.246;20.898;2023-09-08T03:41:35;101091.94;;;17.50;79.65
19520;BME280;9904;52.246;20.898;2023-09-08T03:44:02;101089.88;;;17.60;79.03
19520;BME280;9904;52.246;20.898;2023-09-08T03:46:29;101090.44;;;17.47;79.67
19520;BME280;9904;52.246;20.898;2023-09-08T03:48:55;101093.72;;;17.34;80.31
19520;BME280;9904;52.246;20.898;2023-09-08T03:51:27;101089.94;;;17.43;79.81
19520;BME280;9904;52.246;20.898;2023-09-08T03:53:54;101099.47;;;17.56;79.10
19520;BME280;9904;52.246;20.898;2023-09-08T03:56:21;101097.44;;;17.41;80.13
19520;BME280;9904;52.246;20.898;2023-09-08T03:58:48;101097.84;;;17.30;80.62
19520;BME280;9904;52.246;20.898;2023-09-08T04:01:15;101094.78;;;17.25;80.80
19520;BME280;9904;52.246;20.898;2023-09-08T04:03:42;101095.44;;;17.27;80.74
19520;BME280;9904;52.246;20.898;2023-09-08T04:06:10;101093.41;;;17.29;80.69
19520;BME280;9904;52.246;20.898;2023-09-08T04:08:36;101099.91;;;17.28;80.71
19520;BME280;9904;52.246;20.898;2023-09-08T04:11:03;101087.81;;;17.14;81.58
19520;BME280;9904;52.246;20.898;2023-09-08T04:13:30;101087.59;;;17.24;80.96
19520;BME280;9904;52.246;20.898;2023-09-08T04:15:56;101085.00;;;17.31;80.88
19520;BME280;9904;52.246;20.898;2023-09-08T04:18:23;101095.28;;;17.29;81.13
19520;BME280;9904;52.246;20.898;2023-09-08T04:20:50;101085.69;;;17.33;80.56
19520;BME280;9904;52.246;20.898;2023-09-08T04:23:16;101091.13;;;17.41;80.26
19520;BME280;9904;52.246;20.898;2023-09-08T04:25:43;101090.09;;;17.42;80.18
19520;BME280;9904;52.246;20.898;2023-09-08T04:28:10;101096.78;;;17.48;80.20
19520;BME280;9904;52.246;20.898;2023-09-08T04:30:36;101090.34;;;17.64;79.21
19520;BME280;9904;52.246;20.898;2023-09-08T04:33:03;101093.63;;;17.59;79.46
19520;BME280;9904;52.246;20.898;2023-09-08T04:35:30;101096.22;;;17.52;79.95
19520;BME280;9904;52.246;20.898;2023-09-08T04:37:57;101096.69;;;17.64;79.27
19520;BME280;9904;52.246;20.898;2023-09-08T04:40:23;101086.31;;;17.51;79.94
19520;BME280;9904;52.246;20.898;2023-09-08T04:42:50;101084.56;;;17.58;79.58
19520;BME280;9904;52.246;20.898;2023-09-08T04:45:16;101087.59;;;17.72;78.97
19520;BME280;9904;52.246;20.898;2023-09-08T04:47:43;101079.28;;;17.88;77.86
19520;BME280;9904;52.246;20.898;2023-09-08T04:50:10;101092.09;;;17.96;77.71
19520;BME280;9904;52.246;20.898;2023-09-08T04:52:37;101086.69;;;17.80;78.89
19520;BME280;9904;52.246;20.898;2023-09-08T04:55:04;101086.81;;;17.86;78.92
19520;BME280;9904;52.246;20.898;2023-09-08T04:57:30;101084.78;;;17.88;78.91
19520;BME280;9904;52.246;20.898;2023-09-08T04:59:57;101086.47;;;17.89;78.76
19520;BME280;9904;52.246;20.898;2023-09-08T05:02:24;101082.53;;;17.92;78.39
19520;BME280;9904;52.246;20.898;2023-09-08T05:04:51;101083.56;;;17.91;77.87
19520;BME280;9904;52.246;20.898;2023-09-08T05:07:18;101078.41;;;17.96;77.50
19520;BME280;9904;52.246;20.898;2023-09-08T05:09:46;101082.53;;;17.92;77.98
19520;BME280;9904;52.246;20.898;2023-09-08T05:12:13;101083.28;;;18.09;77.09
19520;BME280;9904;52.246;20.898;2023-09-08T05:14:40;101083.50;;;18.08;77.15
19520;BME280;9904;52.246;20.898;2023-09-08T05:17:07;101080.31;;;18.19;76.61
19520;BME280;9904;52.246;20.898;2023-09-08T05:19:34;101075.22;;;18.16;76.48
19520;BME280;9904;52.246;20.898;2023-09-08T05:22:00;101078.13;;;18.14;76.80
19520;BME280;9904;52.246;20.898;2023-09-08T05:24:27;101072.59;;;18.23;76.42
19520;BME280;9904;52.246;20.898;2023-09-08T05:26:54;101063.03;;;18.18;76.29
19520;BME280;9904;52.246;20.898;2023-09-08T05:29:21;101075.22;;;18.16;76.70
19520;BME280;9904;52.246;20.898;2023-09-08T05:31:48;101079.59;;;18.25;76.19
19520;BME280;9904;52.246;20.898;2023-09-08T05:34:14;101081.28;;;18.26;76.05
19520;BME280;9904;52.246;20.898;2023-09-08T05:36:41;101074.78;;;18.27;76.43
19520;BME280;9904;52.246;20.898;2023-09-08T05:39:09;101067.22;;;18.29;76.24
19520;BME280;9904;52.246;20.898;2023-09-08T05:41:36;101073.06;;;18.26;76.09
19520;BME280;9904;52.246;20.898;2023-09-08T05:44:03;101072.78;;;18.21;76.38
19520;BME280;9904;52.246;20.898;2023-09-08T05:46:30;101071.00;;;18.28;76.06
19520;BME280;9904;52.246;20.898;2023-09-08T05:48:57;101078.63;;;18.41;75.76
19520;BME280;9904;52.246;20.898;2023-09-08T05:51:23;101080.81;;;18.46;75.65
19520;BME280;9904;52.246;20.898;2023-09-08T05:53:50;101081.84;;;18.45;76.10
19520;BME280;9904;52.246;20.898;2023-09-08T05:56:18;101074.94;;;18.49;75.99
19520;BME280;9904;52.246;20.898;2023-09-08T05:58:46;101088.41;;;18.59;75.22
19520;BME280;9904;52.246;20.898;2023-09-08T06:01:14;101084.06;;;18.64;75.50
19520;BME280;9904;52.246;20.898;2023-09-08T06:03:41;101084.47;;;18.76;75.48
19520;BME280;9904;52.246;20.898;2023-09-08T06:06:10;101089.28;;;18.97;74.73
19520;BME280;9904;52.246;20.898;2023-09-08T06:08:36;101081.63;;;19.08;73.68
19520;BME280;9904;52.246;20.898;2023-09-08T06:11:03;101077.28;;;19.28;72.64
19520;BME280;9904;52.246;20.898;2023-09-08T06:13:30;101080.22;;;19.42;71.86
19520;BME280;9904;52.246;20.898;2023-09-08T06:15:56;101082.19;;;19.48;71.97
19520;BME280;9904;52.246;20.898;2023-09-08T06:18:23;101081.81;;;19.36;72.56
19520;BME280;9904;52.246;20.898;2023-09-08T06:20:49;101078.22;;;19.51;71.92
19520;BME280;9904;52.246;20.898;2023-09-08T06:23:20;101075.00;;;19.62;72.17
19520;BME280;9904;52.246;20.898;2023-09-08T06:25:48;101071.16;;;19.78;71.14
19520;BME280;9904;52.246;20.898;2023-09-08T06:28:15;101070.25;;;19.86;70.47
19520;BME280;9904;52.246;20.898;2023-09-08T06:30:42;101073.84;;;19.86;70.92
19520;BME280;9904;52.246;20.898;2023-09-08T06:33:09;101071.63;;;19.82;71.06
19520;BME280;9904;52.246;20.898;2023-09-08T06:35:35;101078.44;;;20.01;70.72
19520;BME280;9904;52.246;20.898;2023-09-08T06:38:02;101076.38;;;20.24;69.33
19520;BME280;9904;52.246;20.898;2023-09-08T06:40:29;101073.06;;;20.14;69.73
19520;BME280;9904;52.246;20.898;2023-09-08T06:42:56;101080.16;;;20.45;68.93
19520;BME280;9904;52.246;20.898;2023-09-08T06:45:26;101082.13;;;20.30;68.95
19520;BME280;9904;52.246;20.898;2023-09-08T06:47:53;101079.91;;;20.40;69.64
19520;BME280;9904;52.246;20.898;2023-09-08T06:50:22;101081.59;;;20.63;68.17
19520;BME280;9904;52.246;20.898;2023-09-08T06:52:50;101077.84;;;20.70;67.80
19520;BME280;9904;52.246;20.898;2023-09-08T06:55:16;101085.63;;;20.88;66.87
19520;BME280;9904;52.246;20.898;2023-09-08T06:57:43;101078.13;;;21.39;65.40
19520;BME280;9904;52.246;20.898;2023-09-08T07:00:11;101077.19;;;21.60;64.59
19520;BME280;9904;52.246;20.898;2023-09-08T07:02:39;101079.16;;;23.22;59.77
19520;BME280;9904;52.246;20.898;2023-09-08T07:05:06;101073.75;;;25.70;52.15
19520;BME280;9904;52.246;20.898;2023-09-08T07:07:35;101078.34;;;27.39;47.99
19520;BME280;9904;52.246;20.898;2023-09-08T07:10:03;101072.16;;;28.48;44.94
19520;BME280;9904;52.246;20.898;2023-09-08T07:12:30;101078.25;;;29.52;42.01
19520;BME280;9904;52.246;20.898;2023-09-08T07:15:00;101072.44;;;29.81;41.48
19520;BME280;9904;52.246;20.898;2023-09-08T07:17:27;101063.22;;;30.02;41.21
19520;BME280;9904;52.246;20.898;2023-09-08T07:19:54;101067.78;;;31.65;37.19
19520;BME280;9904;52.246;20.898;2023-09-08T07:22:21;101072.22;;;32.91;35.52
19520;BME280;9904;52.246;20.898;2023-09-08T07:24:48;101073.78;;;34.04;33.21
19520;BME280;9904;52.246;20.898;2023-09-08T07:27:14;101074.88;;;34.83;31.63
19520;BME280;9904;52.246;20.898;2023-09-08T07:29:41;101076.22;;;34.90;31.48
19520;BME280;9904;52.246;20.898;2023-09-08T07:32:08;101073.88;;;35.03;31.78
19520;BME280;9904;52.246;20.898;2023-09-08T07:34:35;101072.34;;;34.52;32.28
19520;BME280;9904;52.246;20.898;2023-09-08T07:37:02;101077.28;;;34.65;31.93
19520;BME280;9904;52.246;20.898;2023-09-08T07:39:29;101077.28;;;35.73;30.53
19520;BME280;9904;52.246;20.898;2023-09-08T07:41:56;101077.00;;;34.27;32.37
19520;BME280;9904;52.246;20.898;2023-09-08T07:44:27;101078.38;;;35.52;30.01
19520;BME280;9904;52.246;20.898;2023-09-08T07:46:54;101080.63;;;37.17;27.97
19520;BME280;9904;52.246;20.898;2023-09-08T07:49:23;101081.44;;;37.73;26.50
19520;BME280;9904;52.246;20.898;2023-09-08T07:51:50;101075.25;;;37.99;26.78
19520;BME280;9904;52.246;20.898;2023-09-08T07:54:17;101079.66;;;36.61;28.14
19520;BME280;9904;52.246;20.898;2023-09-08T07:56:46;101077.53;;;32.93;33.50
19520;BME280;9904;52.246;20.898;2023-09-08T07:59:13;101077.41;;;30.50;38.72
19520;BME280;9904;52.246;20.898;2023-09-08T08:01:41;101071.63;;;34.36;32.92
19520;BME280;9904;52.246;20.898;2023-09-08T08:04:07;101068.03;;;36.10;29.97
19520;BME280;9904;52.246;20.898;2023-09-08T08:06:34;101066.25;;;36.86;28.56
19520;BME280;9904;52.246;20.898;2023-09-08T08:09:01;101068.28;;;36.14;29.40
19520;BME280;9904;52.246;20.898;2023-09-08T08:11:29;101065.03;;;37.76;27.39
19520;BME280;9904;52.246;20.898;2023-09-08T08:13:55;101065.44;;;36.66;28.37
19520;BME280;9904;52.246;20.898;2023-09-08T08:16:23;101063.88;;;35.83;29.33
19520;BME280;9904;52.246;20.898;2023-09-08T08:18:51;101071.53;;;35.34;30.10
19520;BME280;9904;52.246;20.898;2023-09-08T08:21:21;101072.75;;;33.95;31.83
19520;BME280;9904;52.246;20.898;2023-09-08T08:23:50;101074.75;;;32.51;34.74
19520;BME280;9904;52.246;20.898;2023-09-08T08:26:17;101074.63;;;31.89;35.74
19520;BME280;9904;52.246;20.898;2023-09-08T08:28:44;101070.72;;;30.24;39.00
19520;BME280;9904;52.246;20.898;2023-09-08T08:31:11;101083.06;;;28.66;42.94
19520;BME280;9904;52.246;20.898;2023-09-08T08:33:38;101084.56;;;29.64;41.09
19520;BME280;9904;52.246;20.898;2023-09-08T08:36:05;101071.03;;;30.28;39.72
19520;BME280;9904;52.246;20.898;2023-09-08T08:38:34;101069.22;;;29.45;41.12
19520;BME280;9904;52.246;20.898;2023-09-08T08:41:04;101069.38;;;28.48;43.51
19520;BME280;9904;52.246;20.898;2023-09-08T08:43:32;101070.03;;;28.21;43.44
19520;BME280;9904;52.246;20.898;2023-09-08T08:45:59;101063.69;;;27.96;44.53
19520;BME280;9904;52.246;20.898;2023-09-08T08:48:29;101065.91;;;28.23;44.12
19520;BME280;9904;52.246;20.898;2023-09-08T08:50:57;101067.69;;;28.63;43.67
19520;BME280;9904;52.246;20.898;2023-09-08T08:53:25;101060.69;;;28.78;43.22
19520;BME280;9904;52.246;20.898;2023-09-08T08:55:55;101063.84;;;27.90;44.94
19520;BME280;9904;52.246;20.898;2023-09-08T08:58:23;101065.84;;;27.65;46.21
19520;BME280;9904;52.246;20.898;2023-09-08T09:00:53;101063.44;;;27.69;46.00
19520;BME280;9904;52.246;20.898;2023-09-08T09:03:26;101060.31;;;27.54;45.64
19520;BME280;9904;52.246;20.898;2023-09-08T09:05:54;101061.19;;;27.54;46.63
19520;BME280;9904;52.246;20.898;2023-09-08T09:08:22;101057.53;;;27.94;45.25
19520;BME280;9904;52.246;20.898;2023-09-08T09:10:51;101061.97;;;28.36;44.45
19520;BME280;9904;52.246;20.898;2023-09-08T09:13:18;101057.75;;;28.85;44.27
19520;BME280;9904;52.246;20.898;2023-09-08T09:15:48;101042.47;;;29.71;41.25
19520;BME280;9904;52.246;20.898;2023-09-08T09:18:15;101048.50;;;29.63;41.18
19520;BME280;9904;52.246;20.898;2023-09-08T09:20:53;101045.69;;;28.79;43.32
19520;BME280;9904;52.246;20.898;2023-09-08T09:23:31;101048.16;;;28.12;45.31
19520;BME280;9904;52.246;20.898;2023-09-08T09:25:59;101045.47;;;27.89;45.96
19520;BME280;9904;52.246;20.898;2023-09-08T09:28:28;101043.03;;;28.55;43.83
19520;BME280;9904;52.246;20.898;2023-09-08T09:30:56;101033.75;;;27.46;45.36
19520;BME280;9904;52.246;20.898;2023-09-08T09:33:23;101027.31;;;27.57;45.41
19520;BME280;9904;52.246;20.898;2023-09-08T09:35:51;101042.28;;;28.43;43.24
19520;BME280;9904;52.246;20.898;2023-09-08T09:38:19;101037.19;;;28.06;44.49
19520;BME280;9904;52.246;20.898;2023-09-08T09:40:48;101022.34;;;28.68;42.28
19520;BME280;9904;52.246;20.898;2023-09-08T09:43:16;101036.50;;;28.78;41.48
19520;BME280;9904;52.246;20.898;2023-09-08T09:45:43;101032.34;;;27.72;43.93
19520;BME280;9904;52.246;20.898;2023-09-08T09:48:10;101032.16;;;28.20;44.94
19520;BME280;9904;52.246;20.898;2023-09-08T09:50:40;101029.03;;;28.67;40.75
19520;BME280;9904;52.246;20.898;2023-09-08T09:53:09;101029.28;;;27.45;43.42
19520;BME280;9904;52.246;20.898;2023-09-08T09:55:38;101021.47;;;27.71;41.28
19520;BME280;9904;52.246;20.898;2023-09-08T09:58:06;101012.75;;;27.79;42.56
19520;BME280;9904;52.246;20.898;2023-09-08T10:00:34;101022.47;;;27.00;44.41
19520;BME280;9904;52.246;20.898;2023-09-08T10:03:01;101011.63;;;27.80;43.28
19520;BME280;9904;52.246;20.898;2023-09-08T10:05:29;101009.56;;;27.34;44.56
19520;BME280;9904;52.246;20.898;2023-09-08T10:07:56;101013.25;;;27.23;44.77
19520;BME280;9904;52.246;20.898;2023-09-08T10:10:23;101015.22;;;27.92;42.92
19520;BME280;9904;52.246;20.898;2023-09-08T10:12:56;101008.88;;;28.09;39.07
19520;BME280;9904;52.246;20.898;2023-09-08T10:15:24;101009.25;;;27.72;40.92
19520;BME280;9904;52.246;20.898;2023-09-08T10:17:54;101013.50;;;28.37;41.14
19520;BME280;9904;52.246;20.898;2023-09-08T10:20:27;101004.53;;;27.31;42.86
19520;BME280;9904;52.246;20.898;2023-09-08T10:23:12;101001.84;;;27.36;43.64
19520;BME280;9904;52.246;20.898;2023-09-08T10:25:43;101008.91;;;27.97;41.45
19520;BME280;9904;52.246;20.898;2023-09-08T10:28:16;101005.34;;;27.44;41.92
19520;BME280;9904;52.246;20.898;2023-09-08T10:30:43;101004.22;;;27.86;42.15
19520;BME280;9904;52.246;20.898;2023-09-08T10:33:11;101011.72;;;27.85;39.99
19520;BME280;9904;52.246;20.898;2023-09-08T10:35:39;101009.13;;;28.24;38.77
19520;BME280;9904;52.246;20.898;2023-09-08T10:40:53;100999.53;;;28.03;39.72
19520;BME280;9904;52.246;20.898;2023-09-08T10:43:39;100997.31;;;28.17;37.24
19520;BME280;9904;52.246;20.898;2023-09-08T10:46:10;100995.78;;;28.26;38.24
19520;BME280;9904;52.246;20.898;2023-09-08T10:48:44;100990.09;;;28.04;38.49
19520;BME280;9904;52.246;20.898;2023-09-08T10:51:14;100990.69;;;28.06;38.88
19520;BME280;9904;52.246;20.898;2023-09-08T10:53:41;100984.72;;;27.28;39.74
19520;BME280;9904;52.246;20.898;2023-09-08T10:56:07;100990.28;;;27.68;39.36
19520;BME280;9904;52.246;20.898;2023-09-08T10:58:48;100983.75;;;27.92;38.51
19520;BME280;9904;52.246;20.898;2023-09-08T11:01:16;100975.13;;;26.83;40.27
19520;BME280;9904;52.246;20.898;2023-09-08T11:03:45;100973.84;;;27.26;40.31
19520;BME280;9904;52.246;20.898;2023-09-08T11:06:18;100962.22;;;26.77;41.37
19520;BME280;9904;52.246;20.898;2023-09-08T11:08:46;100968.88;;;27.28;41.50
19520;BME280;9904;52.246;20.898;2023-09-08T11:11:15;100963.84;;;27.83;40.67
19520;BME280;9904;52.246;20.898;2023-09-08T11:13:42;100965.88;;;28.05;39.62
19520;BME280;9904;52.246;20.898;2023-09-08T11:16:13;100967.50;;;28.01;40.07
19520;BME280;9904;52.246;20.898;2023-09-08T11:18:40;100972.34;;;27.35;40.82
19520;BME280;9904;52.246;20.898;2023-09-08T11:21:09;100957.59;;;27.93;38.88
19520;BME280;9904;52.246;20.898;2023-09-08T11:23:37;100964.19;;;28.04;39.42
19520;BME280;9904;52.246;20.898;2023-09-08T11:26:05;100958.56;;;28.33;39.75
19520;BME280;9904;52.246;20.898;2023-09-08T11:28:32;100956.69;;;27.58;40.43
19520;BME280;9904;52.246;20.898;2023-09-08T11:31:01;100957.41;;;28.11;39.01
19520;BME280;9904;52.246;20.898;2023-09-08T11:33:33;100959.25;;;28.23;38.54
19520;BME280;9904;52.246;20.898;2023-09-08T11:36:00;100958.06;;;28.36;38.96
19520;BME280;9904;52.246;20.898;2023-09-08T11:38:28;100960.88;;;28.70;37.20
19520;BME280;9904;52.246;20.898;2023-09-08T11:40:57;100958.38;;;28.56;37.28
19520;BME280;9904;52.246;20.898;2023-09-08T11:43:25;100953.00;;;28.33;38.92
19520;BME280;9904;52.246;20.898;2023-09-08T11:45:52;100938.06;;;27.88;38.84
19520;BME280;9904;52.246;20.898;2023-09-08T11:48:19;100948.91;;;28.35;38.09
19520;BME280;9904;52.246;20.898;2023-09-08T11:50:46;100944.75;;;28.38;38.26
19520;BME280;9904;52.246;20.898;2023-09-08T11:53:19;100947.69;;;27.97;39.79
19520;BME280;9904;52.246;20.898;2023-09-08T11:55:46;100949.25;;;27.47;39.29
19520;BME280;9904;52.246;20.898;2023-09-08T11:58:14;100948.41;;;27.75;39.04
19520;BME280;9904;52.246;20.898;2023-09-08T12:00:42;100941.09;;;28.37;37.69
19520;BME280;9904;52.246;20.898;2023-09-08T12:03:14;100945.84;;;28.37;37.15
19520;BME280;9904;52.246;20.898;2023-09-08T12:05:50;100940.34;;;27.91;38.80
19520;BME280;9904;52.246;20.898;2023-09-08T12:08:18;100943.00;;;27.86;39.54
19520;BME280;9904;52.246;20.898;2023-09-08T12:10:46;100938.88;;;27.88;40.40
19520;BME280;9904;52.246;20.898;2023-09-08T12:13:13;100928.88;;;27.58;40.73
19520;BME280;9904;52.246;20.898;2023-09-08T12:15:42;100935.56;;;28.20;39.31
19520;BME280;9904;52.246;20.898;2023-09-08T12:18:11;100939.78;;;28.06;38.74
19520;BME280;9904;52.246;20.898;2023-09-08T12:20:39;100930.25;;;27.73;39.14
19520;BME280;9904;52.246;20.898;2023-09-08T12:23:15;100932.84;;;28.08;38.83
19520;BME280;9904;52.246;20.898;2023-09-08T12:25:56;100929.41;;;27.55;39.46
19520;BME280;9904;52.246;20.898;2023-09-08T12:28:30;100922.78;;;28.58;38.69
19520;BME280;9904;52.246;20.898;2023-09-08T12:30:57;100919.88;;;29.09;37.15
19520;BME280;9904;52.246;20.898;2023-09-08T12:33:26;100920.19;;;29.35;36.26
19520;BME280;9904;52.246;20.898;2023-09-08T12:35:53;100915.47;;;29.36;38.00
19520;BME280;9904;52.246;20.898;2023-09-08T12:38:30;100922.03;;;29.52;37.41
19520;BME280;9904;52.246;20.898;2023-09-08T12:40:58;100910.50;;;28.76;37.89
19520;BME280;9904;52.246;20.898;2023-09-08T12:43:25;100900.22;;;28.77;37.39
19520;BME280;9904;52.246;20.898;2023-09-08T12:45:57;100905.47;;;28.56;38.65
19520;BME280;9904;52.246;20.898;2023-09-08T12:48:24;100896.59;;;28.76;37.59
19520;BME280;9904;52.246;20.898;2023-09-08T12:50:51;100890.63;;;29.12;36.86
19520;BME280;9904;52.246;20.898;2023-09-08T12:53:18;100886.00;;;29.23;36.91
19520;BME280;9904;52.246;20.898;2023-09-08T12:55:45;100885.94;;;29.18;36.97
19520;BME280;9904;52.246;20.898;2023-09-08T12:58:12;100889.31;;;29.20;37.16
19520;BME280;9904;52.246;20.898;2023-09-08T13:00:38;100898.63;;;28.64;38.71